Time;durP1;ratioP1;P1;durP2;ratioP2;P2;SDS_P1;SDS_P2;PMS_P1;PMS_P2;Temp;Humidity;BMP_temperature;BMP_pressure;BME280_temperature;BME280_humidity;BME280_pressure;Samples;Min_cycle;Max_cycle;Signal;HPM_P1;HPM_P2
2023/02/28 00:00:09;;;;;;;6.22;3.70;;;;;;;;;;1051729;28;20046;-58
2023/02/28 00:00:40;;;;;;;5.15;2.85;;;;;;;;;;1051589;28;20019;-57
2023/02/28 00:01:12;;;;;;;4.70;2.97;;;;;;;;;;1051570;28;20039;-58
2023/02/28 00:01:43;;;;;;;4.47;3.20;;;;;;;;;;1051521;28;20024;-57
2023/02/28 00:02:17;;;;;;;5.63;3.22;;;;;;;;;;1051606;28;20039;-58
2023/02/28 00:02:48;;;;;;;6.32;3.40;;;;;;;;;;1051334;28;20016;-58
2023/02/28 00:03:19;;;;;;;4.22;2.60;;;;;;;;;;1051728;28;20024;-58
2023/02/28 00:03:50;;;;;;;4.93;2.90;;;;;;;;;;1051451;28;20020;-58
2023/02/28 00:04:21;;;;;;;4.57;2.97;;;;;;;;;;1051636;28;20274;-58
2023/02/28 00:05:00;;;;;;;3.95;3.03;;;;;;;;;;1051459;28;20016;-58
2023/02/28 00:05:32;;;;;;;4.72;3.00;;;;;;;;;;1051713;28;20069;-57
2023/02/28 00:06:03;;;;;;;4.63;2.88;;;;;;;;;;1051434;28;20020;-57
2023/02/28 00:06:34;;;;;;;4.50;2.83;;;;;;;;;;1051594;28;20040;-57
2023/02/28 00:07:05;;;;;;;4.63;2.90;;;;;;;;;;1051556;28;20020;-57
2023/02/28 00:07:37;;;;;;;5.20;2.92;;;;;;;;;;1051358;28;20012;-57
2023/02/28 00:08:08;;;;;;;4.40;2.85;;;;;;;;;;1051526;28;20065;-57
2023/02/28 00:08:39;;;;;;;4.63;2.40;;;;;;;;;;1050971;28;20095;-58
2023/02/28 00:09:10;;;;;;;3.63;2.60;;;;;;;;;;1051376;28;20027;-57
2023/02/28 00:09:41;;;;;;;3.83;2.60;;;;;;;;;;1051109;28;20039;-58
2023/02/28 00:10:14;;;;;;;4.50;3.00;;;;;;;;;;1051282;28;20032;-58
2023/02/28 00:10:45;;;;;;;5.15;2.60;;;;;;;;;;1051393;28;20430;-58
2023/02/28 00:11:16;;;;;;;3.83;2.97;;;;;;;;;;1051337;28;20530;-57
2023/02/28 00:11:47;;;;;;;3.28;2.53;;;;;;;;;;1051714;28;20023;-58
2023/02/28 00:12:18;;;;;;;4.25;2.88;;;;;;;;;;1051451;28;20043;-57
2023/02/28 00:12:49;;;;;;;4.03;2.65;;;;;;;;;;1051443;28;20012;-58
2023/02/28 00:13:20;;;;;;;5.22;3.00;;;;;;;;;;1051538;28;20016;-57
2023/02/28 00:13:51;;;;;;;4.18;2.67;;;;;;;;;;1051461;28;20044;-57
2023/02/28 00:14:22;;;;;;;3.67;2.33;;;;;;;;;;1051526;28;20016;-57
2023/02/28 00:14:54;;;;;;;4.88;2.80;;;;;;;;;;1047279;28;20065;-57
2023/02/28 00:15:25;;;;;;;4.53;2.83;;;;;;;;;;1047351;28;20020;-58
2023/02/28 00:16:00;;;;;;;4.47;2.83;;;;;;;;;;1050919;28;20027;-58
2023/02/28 00:16:31;;;;;;;4.25;2.65;;;;;;;;;;1051158;28;20020;-57
2023/02/28 00:17:02;;;;;;;4.00;2.70;;;;;;;;;;1051552;28;20107;-58
2023/02/28 00:17:33;;;;;;;4.90;2.78;;;;;;;;;;1051485;28;20564;-58
2023/02/28 00:18:04;;;;;;;4.85;2.58;;;;;;;;;;1051535;28;20051;-58
2023/02/28 00:18:35;;;;;;;4.82;2.90;;;;;;;;;;1051340;28;20016;-57
2023/02/28 00:19:06;;;;;;;4.03;2.80;;;;;;;;;;1051641;28;20015;-57
2023/02/28 00:19:37;;;;;;;4.20;2.88;;;;;;;;;;1051321;28;20045;-57
2023/02/28 00:20:11;;;;;;;4.40;2.83;;;;;;;;;;1051415;28;20036;-57
2023/02/28 00:20:42;;;;;;;4.63;2.70;;;;;;;;;;1051084;28;20087;-57
2023/02/28 00:21:13;;;;;;;5.20;2.60;;;;;;;;;;1051442;28;20016;-57
2023/02/28 00:21:44;;;;;;;3.70;2.58;;;;;;;;;;1051285;28;20077;-57
2023/02/28 00:22:16;;;;;;;3.80;2.67;;;;;;;;;;1051404;28;20016;-57
2023/02/28 00:22:48;;;;;;;4.07;2.40;;;;;;;;;;1051457;28;20733;-57
2023/02/28 00:23:19;;;;;;;4.40;2.72;;;;;;;;;;1051589;28;20027;-57
2023/02/28 00:23:50;;;;;;;4.15;2.42;;;;;;;;;;1051311;28;20016;-57
2023/02/28 00:24:21;;;;;;;4.88;2.88;;;;;;;;;;1051504;28;20020;-57
2023/02/28 00:24:52;;;;;;;3.63;2.47;;;;;;;;;;1051416;28;20020;-57
2023/02/28 00:25:25;;;;;;;3.38;2.67;;;;;;;;;;1051088;28;20027;-57
2023/02/28 00:25:56;;;;;;;3.83;2.53;;;;;;;;;;1051361;28;20019;-57
2023/02/28 00:26:27;;;;;;;3.75;2.55;;;;;;;;;;1048314;28;20086;-57
2023/02/28 00:26:58;;;;;;;4.45;2.70;;;;;;;;;;1048947;28;20476;-57
2023/02/28 00:27:29;;;;;;;3.78;2.47;;;;;;;;;;1048359;28;20424;-57
2023/02/28 00:28:00;;;;;;;4.18;3.00;;;;;;;;;;1047346;28;20024;-57
2023/02/28 00:28:31;;;;;;;4.17;2.60;;;;;;;;;;1049995;28;20051;-57
2023/02/28 00:29:02;;;;;;;4.13;2.65;;;;;;;;;;1051245;28;20269;-57
2023/02/28 00:29:33;;;;;;;3.42;2.50;;;;;;;;;;1051525;28;20027;-56
2023/02/28 00:30:05;;;;;;;4.32;2.50;;;;;;;;;;1051454;28;20467;-56
2023/02/28 00:30:36;;;;;;;3.28;2.50;;;;;;;;;;1051287;28;20181;-59
2023/02/28 00:31:07;;;;;;;3.97;2.78;;;;;;;;;;1051481;28;20016;-59
2023/02/28 00:31:38;;;;;;;3.58;2.58;;;;;;;;;;1051445;28;20485;-57
2023/02/28 00:32:09;;;;;;;3.75;2.40;;;;;;;;;;1051316;28;20145;-56
2023/02/28 00:32:40;;;;;;;5.18;3.05;;;;;;;;;;1051574;28;20024;-57
2023/02/28 00:33:11;;;;;;;4.65;2.60;;;;;;;;;;1051265;28;20091;-57
2023/02/28 00:33:42;;;;;;;3.63;2.75;;;;;;;;;;1051467;28;20024;-57
2023/02/28 00:34:13;;;;;;;2.85;2.40;;;;;;;;;;1051306;28;20023;-57
2023/02/28 00:34:44;;;;;;;3.65;2.40;;;;;;;;;;1051584;28;20467;-57
2023/02/28 00:35:16;;;;;;;3.63;2.08;;;;;;;;;;1051226;28;20090;-57
2023/02/28 00:35:48;;;;;;;4.18;2.30;;;;;;;;;;1047443;28;20051;-58
2023/02/28 00:36:19;;;;;;;3.38;2.28;;;;;;;;;;1047081;28;20162;-56
2023/02/28 00:36:50;;;;;;;4.50;2.83;;;;;;;;;;1047331;28;20196;-57
2023/02/28 00:37:21;;;;;;;2.67;2.38;;;;;;;;;;1050175;28;20476;-57
2023/02/28 00:37:52;;;;;;;3.17;2.22;;;;;;;;;;1051512;28;20020;-58
2023/02/28 00:38:23;;;;;;;4.30;2.33;;;;;;;;;;1051261;28;20521;-57
2023/02/28 00:38:53;;;;;;;3.70;2.50;;;;;;;;;;1051356;28;20016;-57
2023/02/28 00:39:24;;;;;;;4.43;2.97;;;;;;;;;;1051217;28;20024;-57
2023/02/28 00:39:55;;;;;;;3.75;2.20;;;;;;;;;;1051518;28;20095;-57
2023/02/28 00:40:26;;;;;;;5.07;2.42;;;;;;;;;;1051197;28;20047;-57
2023/02/28 00:40:58;;;;;;;5.35;2.60;;;;;;;;;;1051079;28;20024;-58
2023/02/28 00:41:29;;;;;;;3.30;2.30;;;;;;;;;;1050778;28;20028;-58
2023/02/28 00:42:00;;;;;;;3.40;2.40;;;;;;;;;;1051464;28;20111;-57
2023/02/28 00:42:31;;;;;;;2.95;2.25;;;;;;;;;;1051051;28;20048;-57
2023/02/28 00:43:03;;;;;;;3.97;2.10;;;;;;;;;;1050884;28;20056;-57
2023/02/28 00:43:34;;;;;;;3.33;2.28;;;;;;;;;;1051323;28;20081;-57
2023/02/28 00:44:05;;;;;;;5.18;2.45;;;;;;;;;;1051408;28;20081;-57
2023/02/28 00:44:36;;;;;;;3.40;2.17;;;;;;;;;;1051310;28;20028;-57
2023/02/28 00:45:08;;;;;;;2.92;1.98;;;;;;;;;;1051448;28;20024;-57
2023/02/28 00:45:39;;;;;;;3.13;2.05;;;;;;;;;;1051393;28;20927;-57
2023/02/28 00:46:10;;;;;;;2.83;2.15;;;;;;;;;;1051260;28;20477;-58
2023/02/28 00:46:41;;;;;;;4.43;2.47;;;;;;;;;;1051304;28;20698;-57
2023/02/28 00:47:12;;;;;;;4.13;2.47;;;;;;;;;;1051269;28;20023;-58
2023/02/28 00:47:43;;;;;;;3.42;2.15;;;;;;;;;;1051533;28;20723;-57
2023/02/28 00:48:14;;;;;;;4.07;2.30;;;;;;;;;;1051335;28;20020;-57
2023/02/28 00:48:45;;;;;;;3.47;2.20;;;;;;;;;;1051506;28;20028;-57
2023/02/28 00:49:16;;;;;;;3.38;2.25;;;;;;;;;;1051299;28;20103;-57
2023/02/28 00:49:47;;;;;;;4.70;2.28;;;;;;;;;;1051481;28;20430;-57
2023/02/28 00:50:21;;;;;;;3.72;2.58;;;;;;;;;;1051264;28;20020;-57
2023/02/28 00:50:52;;;;;;;4.80;2.40;;;;;;;;;;1051314;28;20091;-57
2023/02/28 00:51:23;;;;;;;3.38;2.25;;;;;;;;;;1052186;28;20016;-58
2023/02/28 00:51:54;;;;;;;2.97;2.00;;;;;;;;;;1051611;28;20024;-58
2023/02/28 00:52:26;;;;;;;3.45;2.15;;;;;;;;;;1051243;28;20016;-58
2023/02/28 00:52:57;;;;;;;3.35;1.92;;;;;;;;;;1051268;28;20016;-58
2023/02/28 00:53:28;;;;;;;2.97;1.92;;;;;;;;;;1051397;28;20390;-57
2023/02/28 00:53:59;;;;;;;4.75;2.60;;;;;;;;;;1051291;28;20035;-58
2023/02/28 00:54:30;;;;;;;3.53;2.22;;;;;;;;;;1051170;28;20031;-58
2023/02/28 00:55:01;;;;;;;3.15;2.10;;;;;;;;;;1051482;28;20060;-58
2023/02/28 00:55:32;;;;;;;4.30;2.45;;;;;;;;;;1051273;28;20095;-58
2023/02/28 00:56:03;;;;;;;3.40;2.08;;;;;;;;;;1051328;28;20024;-57
2023/02/28 00:56:34;;;;;;;4.05;2.25;;;;;;;;;;1051192;28;20054;-58
2023/02/28 00:57:05;;;;;;;2.85;2.00;;;;;;;;;;1051470;28;20038;-58
2023/02/28 00:57:36;;;;;;;4.40;2.90;;;;;;;;;;1049736;28;20012;-58
2023/02/28 00:58:07;;;;;;;2.83;2.20;;;;;;;;;;1051483;28;20024;-58
2023/02/28 00:58:38;;;;;;;2.90;2.17;;;;;;;;;;1051048;28;20038;-58
2023/02/28 00:59:09;;;;;;;3.50;2.35;;;;;;;;;;1051281;28;20491;-58
2023/02/28 00:59:40;;;;;;;2.45;1.58;;;;;;;;;;1051226;28;20106;-58
2023/02/28 01:00:11;;;;;;;3.03;2.10;;;;;;;;;;1051358;28;20008;-58
2023/02/28 01:00:42;;;;;;;3.20;2.30;;;;;;;;;;1051018;28;20019;-58
2023/02/28 01:01:13;;;;;;;3.95;2.10;;;;;;;;;;1051263;28;20027;-57
2023/02/28 01:01:45;;;;;;;4.10;2.05;;;;;;;;;;1051194;28;20795;-58
2023/02/28 01:02:17;;;;;;;3.58;2.30;;;;;;;;;;1051449;28;20012;-58
2023/02/28 01:02:48;;;;;;;3.50;2.10;;;;;;;;;;1051048;28;20017;-57
2023/02/28 01:03:20;;;;;;;3.40;2.03;;;;;;;;;;1051202;28;20051;-58
2023/02/28 01:03:51;;;;;;;4.25;2.00;;;;;;;;;;1050897;28;20458;-58
2023/02/28 01:04:22;;;;;;;3.65;2.30;;;;;;;;;;1051075;28;20926;-58
2023/02/28 01:04:53;;;;;;;3.45;1.98;;;;;;;;;;1050116;28;20035;-58
2023/02/28 01:05:24;;;;;;;4.73;2.50;;;;;;;;;;1046975;28;20016;-58
2023/02/28 01:05:55;;;;;;;3.05;2.25;;;;;;;;;;1046894;28;20255;-58
2023/02/28 01:06:27;;;;;;;4.80;2.17;;;;;;;;;;1050942;28;20077;-58
2023/02/28 01:06:58;;;;;;;2.80;1.80;;;;;;;;;;1050959;28;20023;-58
2023/02/28 01:07:29;;;;;;;3.38;2.08;;;;;;;;;;1051193;28;20092;-58
2023/02/28 01:07:59;;;;;;;3.38;1.95;;;;;;;;;;1050880;28;20008;-57
2023/02/28 01:08:30;;;;;;;4.13;1.85;;;;;;;;;;1051092;28;20012;-58
2023/02/28 01:09:02;;;;;;;4.90;2.22;;;;;;;;;;1051116;28;20027;-58
2023/02/28 01:09:33;;;;;;;3.10;2.05;;;;;;;;;;1051040;28;20019;-58
2023/02/28 01:10:04;;;;;;;4.20;2.55;;;;;;;;;;1051119;28;20130;-57
2023/02/28 01:10:36;;;;;;;3.97;2.00;;;;;;;;;;1050880;28;20016;-58
2023/02/28 01:11:11;;;;;;;3.38;2.20;;;;;;;;;;1051021;28;20675;-58
2023/02/28 01:11:43;;;;;;;3.25;2.13;;;;;;;;;;1051279;28;20775;-58
2023/02/28 01:12:14;;;;;;;3.50;2.22;;;;;;;;;;1050338;28;20016;-58
2023/02/28 01:12:45;;;;;;;2.75;1.88;;;;;;;;;;1050965;28;20015;-58
2023/02/28 01:13:16;;;;;;;4.20;2.40;;;;;;;;;;1050934;28;20012;-58
2023/02/28 01:13:47;;;;;;;3.05;1.92;;;;;;;;;;1051100;28;20077;-57
2023/02/28 01:14:18;;;;;;;5.00;2.17;;;;;;;;;;1050994;28;20026;-58
2023/02/28 01:14:49;;;;;;;2.88;1.80;;;;;;;;;;1046824;28;20028;-58
2023/02/28 01:15:20;;;;;;;3.42;2.10;;;;;;;;;;1046534;28;20052;-58
2023/02/28 01:15:52;;;;;;;4.50;2.22;;;;;;;;;;1049286;28;20036;-58
2023/02/28 01:16:24;;;;;;;2.90;2.08;;;;;;;;;;1048186;28;20108;-57
2023/02/28 01:16:54;;;;;;;4.40;2.00;;;;;;;;;;1046866;28;20128;-58
2023/02/28 01:17:26;;;;;;;2.90;2.08;;;;;;;;;;1046939;28;20039;-57
2023/02/28 01:17:57;;;;;;;3.53;2.00;;;;;;;;;;1043554;28;20025;-58
2023/02/28 01:18:28;;;;;;;2.85;2.25;;;;;;;;;;1046491;28;20028;-57
2023/02/28 01:18:59;;;;;;;3.30;2.42;;;;;;;;;;1046913;28;20031;-58
2023/02/28 01:19:30;;;;;;;3.40;2.08;;;;;;;;;;1046916;28;20059;-58
2023/02/28 01:20:01;;;;;;;2.70;1.88;;;;;;;;;;1051144;28;20606;-57
2023/02/28 01:20:32;;;;;;;6.22;2.47;;;;;;;;;;1051061;28;20113;-58
2023/02/28 01:21:04;;;;;;;3.05;2.00;;;;;;;;;;1050790;28;20024;-57
2023/02/28 01:21:35;;;;;;;3.75;2.33;;;;;;;;;;1046832;28;20105;-57
2023/02/28 01:22:06;;;;;;;3.92;2.30;;;;;;;;;;1050512;28;20024;-58
2023/02/28 01:22:37;;;;;;;4.25;2.10;;;;;;;;;;1050675;28;20031;-58
2023/02/28 01:23:08;;;;;;;2.60;1.88;;;;;;;;;;1050898;28;20035;-58
2023/02/28 01:23:40;;;;;;;4.35;2.15;;;;;;;;;;1050836;28;20035;-58
2023/02/28 01:24:11;;;;;;;3.67;2.05;;;;;;;;;;1050911;28;20189;-56
2023/02/28 01:24:42;;;;;;;3.90;1.80;;;;;;;;;;1050856;28;20128;-58
2023/02/28 01:25:13;;;;;;;3.67;2.17;;;;;;;;;;1050902;28;20016;-58
2023/02/28 01:25:44;;;;;;;3.80;2.10;;;;;;;;;;1050680;28;20031;-57
2023/02/28 01:26:16;;;;;;;3.13;2.05;;;;;;;;;;1050982;28;20034;-58
2023/02/28 01:26:47;;;;;;;3.17;2.05;;;;;;;;;;1049935;28;20020;-57
2023/02/28 01:27:18;;;;;;;4.30;2.03;;;;;;;;;;1051046;28;20024;-58
2023/02/28 01:27:49;;;;;;;2.28;1.80;;;;;;;;;;1050706;28;20024;-58
2023/02/28 01:28:20;;;;;;;3.40;2.22;;;;;;;;;;1050605;28;20020;-58
2023/02/28 01:28:52;;;;;;;2.25;1.92;;;;;;;;;;1049646;28;20031;-58
2023/02/28 01:29:23;;;;;;;2.55;2.03;;;;;;;;;;1051272;28;20051;-57
2023/02/28 01:29:54;;;;;;;3.20;1.70;;;;;;;;;;1050730;28;20059;-57
2023/02/28 01:30:25;;;;;;;2.72;2.00;;;;;;;;;;1051069;28;20038;-57
2023/02/28 01:30:56;;;;;;;3.47;2.03;;;;;;;;;;1050904;28;20055;-58
2023/02/28 01:31:27;;;;;;;3.85;2.35;;;;;;;;;;1051212;28;20020;-58
2023/02/28 01:31:59;;;;;;;2.83;1.90;;;;;;;;;;1050751;28;20139;-58
2023/02/28 01:32:30;;;;;;;4.13;2.00;;;;;;;;;;1051068;28;20032;-58
2023/02/28 01:33:01;;;;;;;2.83;1.88;;;;;;;;;;1050934;28;20063;-57
2023/02/28 01:33:32;;;;;;;3.72;2.05;;;;;;;;;;1051025;28;20055;-58
2023/02/28 01:34:03;;;;;;;2.40;1.52;;;;;;;;;;1050674;28;20028;-58
2023/02/28 01:34:34;;;;;;;2.55;1.85;;;;;;;;;;1050967;28;20020;-57
2023/02/28 01:35:06;;;;;;;4.20;1.88;;;;;;;;;;1050914;28;20028;-58
2023/02/28 01:35:36;;;;;;;2.65;1.85;;;;;;;;;;1050878;28;20043;-58
2023/02/28 01:36:11;;;;;;;2.55;2.10;;;;;;;;;;1050888;28;20059;-58
2023/02/28 01:36:41;;;;;;;2.67;1.70;;;;;;;;;;1050928;28;20060;-58
2023/02/28 01:37:12;;;;;;;2.60;1.65;;;;;;;;;;1050754;28;20024;-57
2023/02/28 01:37:43;;;;;;;3.00;1.95;;;;;;;;;;1051056;28;20052;-58
2023/02/28 01:38:14;;;;;;;2.92;1.70;;;;;;;;;;1050790;28;20012;-58
2023/02/28 01:38:46;;;;;;;2.25;1.65;;;;;;;;;;1050841;28;20360;-58
2023/02/28 01:39:17;;;;;;;3.08;1.70;;;;;;;;;;1050798;28;20086;-57
2023/02/28 01:39:48;;;;;;;2.85;1.83;;;;;;;;;;1051397;28;20043;-57
2023/02/28 01:40:19;;;;;;;3.55;2.20;;;;;;;;;;1051292;28;20020;-57
2023/02/28 01:40:51;;;;;;;2.38;1.52;;;;;;;;;;1051011;28;20020;-57
2023/02/28 01:41:27;;;;;;;3.60;2.00;;;;;;;;;;1051173;28;20031;-58
2023/02/28 01:41:58;;;;;;;4.18;2.00;;;;;;;;;;1051167;28;20847;-58
2023/02/28 01:42:29;;;;;;;3.10;1.90;;;;;;;;;;1050744;28;20144;-57
2023/02/28 01:43:00;;;;;;;3.17;1.98;;;;;;;;;;1051340;28;20030;-58
2023/02/28 01:43:33;;;;;;;2.78;1.75;;;;;;;;;;1050513;28;20030;-58
2023/02/28 01:44:27;;;;;;;3.33;2.00;;;;;;;;;;1049335;28;20035;-58
2023/02/28 01:45:17;;;;;;;2.50;1.70;;;;;;;;;;1051057;28;20103;-58
2023/02/28 01:45:48;;;;;;;2.72;1.75;;;;;;;;;;1051076;28;20376;-57
2023/02/28 01:46:19;;;;;;;3.22;1.75;;;;;;;;;;1051246;28;20363;-58
2023/02/28 01:46:50;;;;;;;2.00;1.60;;;;;;;;;;1050994;28;20023;-58
2023/02/28 01:47:21;;;;;;;2.13;1.48;;;;;;;;;;1051138;28;20024;-58
2023/02/28 01:47:54;;;;;;;2.00;1.80;;;;;;;;;;1050730;28;20103;-58
2023/02/28 01:48:27;;;;;;;2.90;1.92;;;;;;;;;;1050972;28;20101;-58
2023/02/28 01:49:01;;;;;;;3.15;1.67;;;;;;;;;;1050818;28;20032;-58
2023/02/28 01:49:32;;;;;;;2.17;1.70;;;;;;;;;;1051230;28;20027;-58
2023/02/28 01:50:06;;;;;;;3.63;2.10;;;;;;;;;;1051045;28;20028;-58
2023/02/28 01:50:39;;;;;;;2.17;1.67;;;;;;;;;;1051033;28;20027;-57
2023/02/28 01:51:12;;;;;;;2.50;1.88;;;;;;;;;;1050962;28;20020;-58
2023/02/28 01:51:50;;;;;;;2.13;1.60;;;;;;;;;;1051236;28;20028;-57
2023/02/28 01:52:22;;;;;;;3.65;1.70;;;;;;;;;;1050909;28;20020;-57
2023/02/28 01:52:55;;;;;;;2.60;1.80;;;;;;;;;;1051009;28;20032;-57
2023/02/28 01:53:46;;;;;;;3.00;2.00;;;;;;;;;;1051334;28;20784;-57
2023/02/28 01:54:19;;;;;;;2.80;1.80;;;;;;;;;;1049133;28;20059;-57
2023/02/28 01:54:52;;;;;;;2.50;1.88;;;;;;;;;;1047689;28;20125;-58
2023/02/28 01:55:23;;;;;;;2.00;1.60;;;;;;;;;;1046985;28;20052;-57
2023/02/28 01:55:54;;;;;;;2.33;1.80;;;;;;;;;;1048593;28;20051;-58
2023/02/28 01:56:27;;;;;;;2.15;1.60;;;;;;;;;;1051108;28;20597;-58
2023/02/28 01:57:01;;;;;;;2.92;1.55;;;;;;;;;;1050529;28;20024;-57
2023/02/28 01:57:37;;;;;;;2.95;1.80;;;;;;;;;;1050937;28;20035;-58
2023/02/28 01:58:08;;;;;;;2.80;1.70;;;;;;;;;;1051250;28;20020;-58
2023/02/28 01:58:39;;;;;;;3.75;2.25;;;;;;;;;;1051087;28;20022;-58
2023/02/28 01:59:12;;;;;;;3.47;1.70;;;;;;;;;;1051054;28;20153;-58
2023/02/28 01:59:46;;;;;;;3.67;1.92;;;;;;;;;;1051149;28;20034;-57
2023/02/28 02:00:18;;;;;;;2.92;1.73;;;;;;;;;;1051020;28;20031;-58
2023/02/28 02:00:49;;;;;;;2.03;1.50;;;;;;;;;;1050952;28;20016;-58
2023/02/28 02:01:21;;;;;;;4.07;2.00;;;;;;;;;;1051116;28;20020;-58
2023/02/28 02:01:53;;;;;;;3.00;1.83;;;;;;;;;;1051144;28;20507;-57
2023/02/28 02:02:25;;;;;;;2.05;1.67;;;;;;;;;;1050645;28;20032;-58
2023/02/28 02:03:07;;;;;;;3.10;2.00;;;;;;;;;;1046845;28;20396;-58
2023/02/28 02:03:38;;;;;;;2.25;1.50;;;;;;;;;;1046364;28;20017;-58
2023/02/28 02:04:09;;;;;;;2.78;1.85;;;;;;;;;;1046893;28;20027;-57
2023/02/28 02:04:42;;;;;;;1.65;1.50;;;;;;;;;;1050726;28;20070;-58
2023/02/28 02:05:16;;;;;;;3.30;2.33;;;;;;;;;;1051278;28;20028;-58
2023/02/28 02:05:48;;;;;;;3.33;1.95;;;;;;;;;;1051044;28;20034;-57
2023/02/28 02:06:19;;;;;;;3.03;1.77;;;;;;;;;;1046492;28;20483;-58
2023/02/28 02:06:50;;;;;;;3.78;2.00;;;;;;;;;;1046550;28;20510;-57
2023/02/28 02:07:21;;;;;;;2.63;1.70;;;;;;;;;;1046841;28;20107;-58
2023/02/28 02:07:56;;;;;;;2.33;1.70;;;;;;;;;;1046813;28;20021;-58
2023/02/28 02:08:29;;;;;;;2.33;1.90;;;;;;;;;;1051182;28;20161;-57
2023/02/28 02:09:00;;;;;;;3.90;2.10;;;;;;;;;;1051009;28;20135;-57
2023/02/28 02:09:31;;;;;;;2.85;1.88;;;;;;;;;;1051005;28;20035;-58
2023/02/28 02:10:05;;;;;;;4.22;1.90;;;;;;;;;;1051004;28;20085;-58
2023/02/28 02:10:49;;;;;;;2.33;1.63;;;;;;;;;;1050934;28;20031;-58
2023/02/28 02:11:21;;;;;;;2.97;1.65;;;;;;;;;;1051175;28;20383;-58
2023/02/28 02:11:52;;;;;;;4.63;1.95;;;;;;;;;;1048025;28;20097;-57
2023/02/28 02:12:41;;;;;;;3.22;1.63;;;;;;;;;;1047009;28;20637;-58
2023/02/28 02:13:19;;;;;;;2.65;1.77;;;;;;;;;;1046814;28;20024;-58
2023/02/28 02:13:56;;;;;;;2.05;1.73;;;;;;;;;;1046779;28;20017;-58
2023/02/28 02:14:34;;;;;;;2.55;1.50;;;;;;;;;;1047438;28;20095;-57
2023/02/28 02:15:13;;;;;;;2.50;1.60;;;;;;;;;;1051160;28;20031;-58
2023/02/28 02:15:43;;;;;;;3.22;1.77;;;;;;;;;;1051180;28;20056;-58
2023/02/28 02:16:35;;;;;;;2.30;1.87;;;;;;;;;;1050946;28;20028;-57
2023/02/28 02:17:11;;;;;;;2.13;1.55;;;;;;;;;;1050926;28;20311;-58
2023/02/28 02:17:46;;;;;;;3.00;2.22;;;;;;;;;;1050873;28;20086;-57
2023/02/28 02:18:30;;;;;;;3.70;1.90;;;;;;;;;;1046230;28;20103;-58
2023/02/28 02:19:11;;;;;;;2.55;1.70;;;;;;;;;;1046765;28;20024;-58
2023/02/28 02:19:54;;;;;;;3.42;2.05;;;;;;;;;;1046911;28;20020;-58
2023/02/28 02:20:38;;;;;;;1.80;1.50;;;;;;;;;;1050425;28;20644;-58
2023/02/28 02:21:17;;;;;;;2.78;2.00;;;;;;;;;;1051176;28;20103;-57
2023/02/28 02:22:06;;;;;;;2.20;1.42;;;;;;;;;;1051051;28;20078;-57
2023/02/28 02:22:56;;;;;;;3.53;1.90;;;;;;;;;;1050882;28;20020;-57
2023/02/28 02:23:56;;;;;;;1.95;1.50;;;;;;;;;;1051096;28;20475;-58
2023/02/28 02:24:33;;;;;;;4.78;1.98;;;;;;;;;;1029878;28;20029;-58
2023/02/28 02:25:07;;;;;;;3.38;2.03;;;;;;;;;;1051293;28;20084;-58
2023/02/28 02:25:49;;;;;;;3.30;1.83;;;;;;;;;;1046599;28;20086;-57
2023/02/28 02:26:39;;;;;;;5.57;1.85;;;;;;;;;;1047411;28;20097;-58
2023/02/28 02:27:28;;;;;;;2.40;1.48;;;;;;;;;;1050947;28;20139;-58
2023/02/28 02:28:12;;;;;;;4.03;1.90;;;;;;;;;;1051070;28;20035;-58
2023/02/28 02:29:07;;;;;;;2.35;1.55;;;;;;;;;;1049249;28;20024;-58
2023/02/28 02:29:43;;;;;;;3.50;1.85;;;;;;;;;;1051014;28;20028;-58
2023/02/28 02:30:28;;;;;;;2.72;1.63;;;;;;;;;;1051033;28;20333;-58
2023/02/28 02:31:06;;;;;;;3.13;1.40;;;;;;;;;;1050964;28;20028;-58
2023/02/28 02:31:37;;;;;;;1.65;1.45;;;;;;;;;;1051137;28;20030;-58
2023/02/28 02:32:19;;;;;;;3.47;1.60;;;;;;;;;;1050893;28;20032;-58
2023/02/28 02:33:08;;;;;;;2.35;1.65;;;;;;;;;;1051085;28;20039;-58
2023/02/28 02:33:58;;;;;;;2.78;1.50;;;;;;;;;;1051042;28;20147;-58
2023/02/28 02:34:32;;;;;;;2.63;1.63;;;;;;;;;;1051092;28;20362;-58
2023/02/28 02:35:05;;;;;;;1.88;1.67;;;;;;;;;;1050949;28;20038;-59
2023/02/28 02:35:46;;;;;;;3.00;1.67;;;;;;;;;;1051017;28;20127;-58
2023/02/28 02:36:24;;;;;;;2.80;1.75;;;;;;;;;;1050945;28;20077;-58
2023/02/28 02:37:13;;;;;;;3.30;1.90;;;;;;;;;;1051082;28;20063;-58
2023/02/28 02:37:52;;;;;;;3.03;1.75;;;;;;;;;;1046990;28;20021;-58
2023/02/28 02:38:23;;;;;;;2.63;1.70;;;;;;;;;;1046945;28;20074;-57
2023/02/28 02:39:13;;;;;;;4.20;1.67;;;;;;;;;;1050134;28;20081;-58
2023/02/28 02:39:48;;;;;;;2.58;1.70;;;;;;;;;;1046990;28;20036;-58
2023/02/28 02:40:24;;;;;;;3.75;1.95;;;;;;;;;;1046922;28;20425;-56
2023/02/28 02:41:15;;;;;;;2.95;2.08;;;;;;;;;;1046924;28;20059;-56
2023/02/28 02:41:49;;;;;;;2.95;1.40;;;;;;;;;;1046756;28;20141;-57
2023/02/28 02:42:32;;;;;;;2.00;1.60;;;;;;;;;;1048985;28;20029;-58
2023/02/28 02:43:07;;;;;;;2.10;1.60;;;;;;;;;;1050536;28;20059;-57
2023/02/28 02:43:41;;;;;;;1.95;1.40;;;;;;;;;;1049237;28;20407;-56
2023/02/28 02:44:15;;;;;;;4.60;1.92;;;;;;;;;;1050669;28;20028;-56
2023/02/28 02:44:48;;;;;;;2.72;1.80;;;;;;;;;;1050986;28;20515;-58
2023/02/28 02:45:23;;;;;;;1.48;1.33;;;;;;;;;;1051137;28;20016;-58
2023/02/28 02:46:00;;;;;;;2.90;1.60;;;;;;;;;;1050837;28;20079;-58
2023/02/28 02:46:38;;;;;;;2.67;1.58;;;;;;;;;;1051060;28;20026;-58
2023/02/28 02:47:15;;;;;;;2.22;1.75;;;;;;;;;;1051283;28;20020;-58
2023/02/28 02:47:46;;;;;;;1.83;1.40;;;;;;;;;;1046665;28;20421;-59
2023/02/28 02:48:19;;;;;;;2.58;1.73;;;;;;;;;;1047001;28;20095;-58
2023/02/28 02:48:52;;;;;;;2.17;1.52;;;;;;;;;;1046581;28;20105;-58
2023/02/28 02:49:28;;;;;;;3.53;1.80;;;;;;;;;;1047115;28;20021;-58
2023/02/28 02:50:04;;;;;;;2.42;1.67;;;;;;;;;;1046791;28;20025;-57
2023/02/28 02:50:40;;;;;;;2.53;1.85;;;;;;;;;;1046863;28;20462;-58
2023/02/28 02:51:14;;;;;;;3.03;1.70;;;;;;;;;;1050858;28;20020;-58
2023/02/28 02:51:47;;;;;;;2.65;1.80;;;;;;;;;;1051049;28;20028;-58
2023/02/28 02:52:19;;;;;;;3.13;1.85;;;;;;;;;;1050958;28;20043;-58
2023/02/28 02:52:52;;;;;;;3.35;1.65;;;;;;;;;;1050966;28;20020;-58
2023/02/28 02:53:33;;;;;;;2.45;1.80;;;;;;;;;;1051198;28;20748;-58
2023/02/28 02:54:16;;;;;;;3.42;2.03;;;;;;;;;;1050812;28;20468;-58
2023/02/28 02:54:48;;;;;;;5.63;2.25;;;;;;;;;;1050977;28;20482;-58
2023/02/28 02:55:21;;;;;;;2.42;1.58;;;;;;;;;;1051190;28;20112;-58
2023/02/28 02:55:54;;;;;;;3.08;1.73;;;;;;;;;;1050763;28;20101;-59
2023/02/28 02:56:27;;;;;;;2.75;1.63;;;;;;;;;;1050414;28;20561;-58
2023/02/28 02:56:59;;;;;;;2.45;1.73;;;;;;;;;;1050849;28;20059;-57
2023/02/28 02:57:32;;;;;;;2.33;1.67;;;;;;;;;;1050966;28;20026;-58
2023/02/28 02:58:05;;;;;;;3.88;2.10;;;;;;;;;;1051159;28;20019;-58
2023/02/28 02:58:41;;;;;;;1.92;1.67;;;;;;;;;;1051076;28;20020;-58
2023/02/28 02:59:14;;;;;;;2.63;1.90;;;;;;;;;;1047793;28;20028;-58
2023/02/28 02:59:45;;;;;;;2.40;1.83;;;;;;;;;;1051265;28;20016;-58
2023/02/28 03:00:17;;;;;;;2.95;1.80;;;;;;;;;;1050853;28;20455;-58
2023/02/28 03:00:50;;;;;;;2.55;1.80;;;;;;;;;;1051129;28;20028;-58
2023/02/28 03:01:27;;;;;;;2.22;1.92;;;;;;;;;;1050543;28;20067;-58
2023/02/28 03:01:59;;;;;;;2.67;1.77;;;;;;;;;;1050687;28;20036;-58
2023/02/28 03:02:34;;;;;;;2.35;1.48;;;;;;;;;;1050280;28;20031;-58
2023/02/28 03:03:05;;;;;;;2.05;1.60;;;;;;;;;;1046752;28;20013;-58
2023/02/28 03:03:36;;;;;;;2.47;1.90;;;;;;;;;;1046722;28;20695;-58
2023/02/28 03:04:16;;;;;;;3.10;2.20;;;;;;;;;;1046851;28;20028;-58
2023/02/28 03:04:52;;;;;;;2.45;1.70;;;;;;;;;;1047079;28;20105;-58
2023/02/28 03:05:27;;;;;;;2.30;1.77;;;;;;;;;;1047741;28;20025;-58
2023/02/28 03:05:59;;;;;;;3.03;1.80;;;;;;;;;;1047967;28;20017;-58
2023/02/28 03:06:30;;;;;;;2.83;1.73;;;;;;;;;;1051767;28;20026;-58
2023/02/28 03:07:00;;;;;;;2.65;1.98;;;;;;;;;;1051820;28;20039;-57
2023/02/28 03:07:31;;;;;;;2.75;1.65;;;;;;;;;;1051812;28;20032;-58
2023/02/28 03:08:05;;;;;;;2.75;1.85;;;;;;;;;;1051639;28;20028;-58
2023/02/28 03:08:37;;;;;;;2.45;1.67;;;;;;;;;;1051766;28;20032;-58
2023/02/28 03:09:08;;;;;;;4.57;2.15;;;;;;;;;;1051768;28;20038;-58
2023/02/28 03:09:39;;;;;;;2.15;1.58;;;;;;;;;;1051723;28;20027;-58
2023/02/28 03:10:31;;;;;;;1.80;1.48;;;;;;;;;;1051743;28;20505;-58
2023/02/28 03:11:08;;;;;;;3.05;1.42;;;;;;;;;;1051551;28;20122;-57
2023/02/28 03:11:40;;;;;;;2.50;1.63;;;;;;;;;;1047615;28;20028;-57
2023/02/28 03:12:13;;;;;;;3.38;2.10;;;;;;;;;;1047501;28;20032;-58
2023/02/28 03:12:50;;;;;;;3.08;1.80;;;;;;;;;;1047874;28;20037;-57
2023/02/28 03:13:53;;;;;;;3.42;1.60;;;;;;;;;;1051415;28;20070;-57
2023/02/28 03:14:33;;;;;;;2.63;1.60;;;;;;;;;;1030596;28;20808;-57
2023/02/28 03:15:10;;;;;;;2.30;1.80;;;;;;;;;;1030524;28;20026;-58
2023/02/28 03:16:07;;;;;;;4.00;1.92;;;;;;;;;;1050585;28;20035;-57
2023/02/28 03:17:04;;;;;;;1.48;1.38;;;;;;;;;;1043070;28;20531;-59
2023/02/28 03:17:50;;;;;;;2.67;1.60;;;;;;;;;;1038811;28;20037;-58
2023/02/28 03:18:24;;;;;;;3.33;1.88;;;;;;;;;;1045433;28;20035;-58
2023/02/28 03:19:13;;;;;;;2.90;1.90;;;;;;;;;;1051740;28;20475;-58
2023/02/28 03:20:07;;;;;;;2.22;1.70;;;;;;;;;;1051942;28;20028;-58
2023/02/28 03:20:45;;;;;;;2.58;1.58;;;;;;;;;;1047189;28;20101;-58
2023/02/28 03:21:24;;;;;;;3.78;1.60;;;;;;;;;;1047498;28;20054;-58
2023/02/28 03:21:55;;;;;;;;;;;;;;;;;;1050031;28;20059;-58
2023/02/28 03:22:36;;;;;;;3.57;1.87;;;;;;;;;;1051767;28;19908;-57
2023/02/28 03:23:10;;;;;;;2.65;1.77;;;;;;;;;;1051808;28;20023;-58